Time;durP1;ratioP1;P1;durP2;ratioP2;P2;SDS_P1;SDS_P2;PMS_P1;PMS_P2;Temp;Humidity;BMP_temperature;BMP_pressure;BME280_temperature;BME280_humidity;BME280_pressure;Samples;Min_cycle;Max_cycle;Signal;HPM_P1;HPM_P2
2023/10/26 00:00:26;;;;;;;3.58;0.80;;;12.50;75.00;;;;;;5088477;28;20461;-64
2023/10/26 00:02:52;;;;;;;2.90;1.05;;;12.50;75.00;;;;;;5086130;28;20520;-64
2023/10/26 00:05:18;;;;;;;0.63;0.60;;;12.50;75.00;;;;;;5090362;28;20101;-63
2023/10/26 00:07:44;;;;;;;1.33;0.70;;;12.40;74.90;;;;;;5087548;28;20024;-63
2023/10/26 00:10:10;;;;;;;1.40;0.80;;;12.40;74.90;;;;;;5088530;28;20012;-63
2023/10/26 00:12:36;;;;;;;1.27;0.85;;;12.40;74.90;;;;;;5086178;28;20074;-63
2023/10/26 00:15:01;;;;;;;0.85;0.70;;;12.40;75.00;;;;;;5088865;28;20036;-64
2023/10/26 00:17:27;;;;;;;2.03;0.82;;;12.40;74.90;;;;;;5087123;28;20023;-63
2023/10/26 00:19:53;;;;;;;1.20;0.70;;;12.40;75.00;;;;;;5089145;28;20022;-63
2023/10/26 00:22:19;;;;;;;1.90;0.70;;;12.40;75.10;;;;;;5091850;28;20109;-63
2023/10/26 00:24:45;;;;;;;1.58;0.82;;;12.30;75.10;;;;;;5090536;28;20116;-63
2023/10/26 00:27:11;;;;;;;1.67;0.90;;;12.30;75.20;;;;;;5088841;28;20024;-63
2023/10/26 00:29:36;;;;;;;4.07;1.00;;;12.30;75.40;;;;;;5086228;28;20019;-63
2023/10/26 00:32:06;;;;;;;2.65;0.90;;;12.30;75.40;;;;;;5085777;28;20032;-64
2023/10/26 00:34:32;;;;;;;0.85;0.80;;;12.20;75.50;;;;;;5090913;28;20015;-62
2023/10/26 00:36:58;;;;;;;0.88;0.80;;;12.20;75.60;;;;;;5087156;28;20416;-64
2023/10/26 00:39:23;;;;;;;2.83;0.80;;;12.20;75.70;;;;;;5089946;28;20026;-63
2023/10/26 00:41:53;;;;;;;0.80;0.80;;;12.20;75.90;;;;;;5092628;28;20035;-63
2023/10/26 00:44:20;;;;;;;1.15;0.80;;;12.20;75.90;;;;;;5089230;28;20016;-63
2023/10/26 00:46:51;;;;;;;2.17;0.88;;;12.20;75.90;;;;;;4993010;28;20095;-64
2023/10/26 00:49:17;;;;;;;1.05;0.80;;;12.20;76.00;;;;;;5090380;28;20024;-63
2023/10/26 00:51:59;;;;;;;2.53;0.90;;;12.20;76.00;;;;;;5087395;28;20024;-64
2023/10/26 00:54:26;;;;;;;2.28;0.90;;;12.20;76.90;;;;;;5085081;28;20020;-63
2023/10/26 00:56:53;;;;;;;5.82;0.98;;;12.20;76.20;;;;;;5087268;28;20115;-63
2023/10/26 00:59:19;;;;;;;3.25;1.00;;;12.20;76.40;;;;;;5089595;28;20036;-64
2023/10/26 01:01:47;;;;;;;1.75;0.82;;;12.20;76.50;;;;;;5090252;28;20032;-64
2023/10/26 01:04:14;;;;;;;4.97;0.93;;;12.20;76.40;;;;;;5089432;28;20028;-63
2023/10/26 01:06:40;;;;;;;1.27;0.80;;;12.20;76.50;;;;;;5083456;28;20020;-63
2023/10/26 01:09:06;;;;;;;1.38;0.90;;;12.20;76.70;;;;;;5088575;28;20035;-64
2023/10/26 01:11:32;;;;;;;1.63;0.98;;;12.20;76.60;;;;;;5085750;28;20023;-65
2023/10/26 01:13:59;;;;;;;1.90;0.90;;;12.20;76.70;;;;;;5092105;28;20024;-63
2023/10/26 01:16:24;;;;;;;1.63;1.00;;;12.20;76.70;;;;;;5085326;28;20502;-63
2023/10/26 01:18:50;;;;;;;1.52;0.95;;;12.20;76.80;;;;;;5088597;28;20081;-64
2023/10/26 01:21:16;;;;;;;1.52;0.90;;;12.20;76.90;;;;;;5088597;28;20036;-64
2023/10/26 01:23:41;;;;;;;0.95;0.90;;;12.20;76.80;;;;;;5087395;28;20078;-63
2023/10/26 01:26:07;;;;;;;4.80;1.33;;;12.20;76.90;;;;;;5069948;28;20075;-64
2023/10/26 01:28:33;;;;;;;2.22;1.30;;;12.20;77.00;;;;;;5071612;28;20030;-64
2023/10/26 01:30:58;;;;;;;1.40;0.90;;;12.20;77.10;;;;;;5072442;28;20371;-64
2023/10/26 01:33:24;;;;;;;4.72;1.20;;;12.20;77.10;;;;;;5089424;28;20063;-62
2023/10/26 01:35:50;;;;;;;1.85;1.30;;;12.20;77.10;;;;;;5075904;28;20032;-63
2023/10/26 01:38:15;;;;;;;4.13;1.10;;;12.20;77.30;;;;;;5105824;27;20028;-63
2023/10/26 01:40:41;;;;;;;3.95;1.50;;;12.20;77.30;;;;;;5093147;28;20399;-64
2023/10/26 01:43:07;;;;;;;3.08;1.05;;;12.20;77.40;;;;;;5089754;28;20016;-64
2023/10/26 01:45:32;;;;;;;2.28;1.10;;;12.20;77.30;;;;;;5074230;28;20032;-64
2023/10/26 01:48:00;;;;;;;1.65;1.30;;;12.20;77.30;;;;;;5094106;28;20028;-64
2023/10/26 01:50:26;;;;;;;1.77;0.93;;;12.20;77.30;;;;;;5075485;28;20027;-63
2023/10/26 01:52:53;;;;;;;2.05;1.10;;;12.20;77.30;;;;;;5092007;28;20034;-64
2023/10/26 01:55:19;;;;;;;4.07;1.20;;;12.20;77.50;;;;;;5090317;28;20020;-63
2023/10/26 01:57:44;;;;;;;1.33;0.90;;;12.20;77.50;;;;;;5109290;27;20571;-63
2023/10/26 02:00:11;;;;;;;1.45;1.00;;;12.20;77.50;;;;;;5078073;28;20034;-64
2023/10/26 02:02:36;;;;;;;3.17;1.30;;;12.10;77.50;;;;;;5073603;28;20051;-63
2023/10/26 02:05:03;;;;;;;2.50;1.10;;;12.10;77.40;;;;;;5087878;28;20090;-63
2023/10/26 02:07:28;;;;;;;1.75;1.20;;;12.10;77.40;;;;;;5092320;28;20016;-63
2023/10/26 02:09:55;;;;;;;6.72;1.48;;;12.10;77.50;;;;;;5092121;28;20524;-64
2023/10/26 02:12:20;;;;;;;2.38;1.10;;;12.10;77.50;;;;;;5093266;28;20080;-63
2023/10/26 02:14:46;;;;;;;3.55;1.20;;;12.10;77.50;;;;;;5090726;28;20466;-63
2023/10/26 02:17:12;;;;;;;1.55;1.00;;;12.00;77.30;;;;;;5091640;28;20076;-64
2023/10/26 02:19:38;;;;;;;1.80;1.25;;;12.00;77.50;;;;;;5092028;28;20465;-63
2023/10/26 02:22:04;;;;;;;1.75;0.95;;;12.00;77.60;;;;;;5092472;28;20044;-63
2023/10/26 02:24:30;;;;;;;1.15;0.93;;;12.00;77.50;;;;;;5094647;28;20044;-63
2023/10/26 02:26:55;;;;;;;2.53;1.00;;;12.00;77.50;;;;;;5089846;28;20559;-64
2023/10/26 02:29:21;;;;;;;5.53;1.30;;;12.00;77.60;;;;;;5095261;28;20031;-63
2023/10/26 02:31:46;;;;;;;1.60;1.00;;;12.00;77.70;;;;;;5085358;28;20024;-63
2023/10/26 02:34:12;;;;;;;2.03;1.15;;;12.00;77.70;;;;;;5085128;28;20035;-63
2023/10/26 02:36:38;;;;;;;2.83;1.33;;;12.00;77.60;;;;;;5086346;28;20054;-64
2023/10/26 02:39:03;;;;;;;1.75;0.95;;;12.00;77.70;;;;;;5094231;28;20123;-64
2023/10/26 02:41:29;;;;;;;1.73;0.88;;;11.90;77.60;;;;;;5088730;28;20043;-63
2023/10/26 02:43:55;;;;;;;2.72;1.00;;;11.90;77.60;;;;;;5094191;28;20032;-63
2023/10/26 02:46:21;;;;;;;1.83;0.93;;;11.90;77.60;;;;;;5091186;28;20043;-63
2023/10/26 02:48:46;;;;;;;1.80;1.05;;;11.90;77.60;;;;;;5089306;28;20071;-63
2023/10/26 02:51:12;;;;;;;2.05;1.15;;;11.90;77.60;;;;;;5090927;28;20027;-62
2023/10/26 02:53:37;;;;;;;2.08;1.10;;;11.90;77.80;;;;;;5087494;28;20036;-64
2023/10/26 02:56:03;;;;;;;1.00;0.90;;;11.90;77.90;;;;;;5094481;28;20020;-65
2023/10/26 02:58:30;;;;;;;2.70;1.08;;;11.90;77.90;;;;;;5092143;28;20050;-63
2023/10/26 03:00:56;;;;;;;1.30;1.00;;;11.90;77.90;;;;;;5089730;28;20123;-64
2023/10/26 03:03:22;;;;;;;1.65;1.15;;;11.80;77.90;;;;;;5090948;28;20169;-64
2023/10/26 03:05:48;;;;;;;1.85;1.13;;;11.80;77.90;;;;;;5090796;28;20084;-63
2023/10/26 03:08:13;;;;;;;2.67;1.13;;;11.80;77.90;;;;;;5087751;28;20434;-63
2023/10/26 03:10:39;;;;;;;1.55;1.13;;;11.80;77.90;;;;;;5092393;28;20035;-64
2023/10/26 03:13:05;;;;;;;3.75;1.25;;;11.80;77.90;;;;;;5093418;28;20358;-64
2023/10/26 03:15:31;;;;;;;1.60;1.25;;;11.80;77.90;;;;;;5091443;28;20024;-63
2023/10/26 03:17:57;;;;;;;2.05;1.13;;;11.70;77.90;;;;;;5093399;28;20131;-63
2023/10/26 03:20:23;;;;;;;2.22;1.30;;;11.70;77.80;;;;;;5089972;28;20126;-63
2023/10/26 03:22:48;;;;;;;2.67;1.30;;;11.70;77.90;;;;;;5073815;28;20028;-63
2023/10/26 03:25:16;;;;;;;1.70;1.33;;;11.70;77.80;;;;;;5074127;28;20805;-62
2023/10/26 03:27:41;;;;;;;2.80;1.60;;;11.70;77.80;;;;;;5090900;28;20481;-63
2023/10/26 03:30:08;;;;;;;2.60;1.40;;;11.70;78.50;;;;;;5106560;27;20024;-64
2023/10/26 03:32:34;;;;;;;7.28;1.90;;;11.60;77.90;;;;;;5087474;28;20088;-63
2023/10/26 03:35:00;;;;;;;4.43;1.38;;;11.60;77.80;;;;;;5091998;28;20035;-62
2023/10/26 03:37:27;;;;;;;2.92;1.65;;;11.60;77.90;;;;;;5092243;28;20350;-64
2023/10/26 03:39:53;;;;;;;1.73;1.42;;;11.60;77.80;;;;;;5089270;28;20639;-65
2023/10/26 03:42:19;;;;;;;3.22;1.50;;;11.60;77.90;;;;;;5087055;28;20036;-63
2023/10/26 03:44:50;;;;;;;3.17;1.50;;;11.50;77.80;;;;;;5088833;28;20046;-63
2023/10/26 03:47:18;;;;;;;3.17;1.55;;;11.50;77.80;;;;;;5089854;28;20028;-63
2023/10/26 03:49:44;;;;;;;4.35;1.63;;;11.50;77.80;;;;;;5089689;28;20165;-63
2023/10/26 03:52:11;;;;;;;1.90;1.60;;;11.50;77.80;;;;;;5090240;28;20135;-64
2023/10/26 03:54:37;;;;;;;2.28;1.60;;;11.50;77.90;;;;;;5089776;28;20035;-63
2023/10/26 03:57:05;;;;;;;3.65;1.83;;;11.50;77.90;;;;;;5104969;27;20351;-63
2023/10/26 03:59:30;;;;;;;2.28;1.55;;;11.50;77.80;;;;;;5088551;28;20023;-63
2023/10/26 04:01:56;;;;;;;5.60;2.10;;;11.50;77.80;;;;;;5088600;28;20355;-63
2023/10/26 04:04:21;;;;;;;6.10;1.88;;;11.40;77.70;;;;;;5090705;28;20490;-63
2023/10/26 04:06:47;;;;;;;3.50;1.98;;;11.40;77.60;;;;;;5087818;28;20123;-62
2023/10/26 04:09:13;;;;;;;2.85;1.73;;;11.40;77.50;;;;;;5090455;28;20117;-63
2023/10/26 04:11:42;;;;;;;2.70;1.60;;;11.40;77.40;;;;;;5092025;28;20142;-64
2023/10/26 04:14:07;;;;;;;3.15;1.77;;;11.40;77.30;;;;;;5088267;28;20035;-64
2023/10/26 04:16:33;;;;;;;5.20;1.60;;;11.40;77.20;;;;;;5091932;28;20024;-62
2023/10/26 04:18:59;;;;;;;3.03;1.73;;;11.30;77.20;;;;;;5089692;28;20032;-63
2023/10/26 04:21:25;;;;;;;3.95;2.10;;;11.30;77.20;;;;;;5093914;28;20028;-63
2023/10/26 04:23:50;;;;;;;2.45;1.90;;;11.30;77.20;;;;;;5090440;28;20047;-63
2023/10/26 04:26:16;;;;;;;5.93;1.80;;;11.30;77.20;;;;;;5090776;28;20135;-63
2023/10/26 04:28:42;;;;;;;4.38;1.30;;;11.20;77.00;;;;;;5086426;28;20366;-63
2023/10/26 04:31:07;;;;;;;4.60;1.70;;;11.20;76.90;;;;;;5089835;28;20028;-63
2023/10/26 04:33:33;;;;;;;3.53;1.65;;;11.20;76.90;;;;;;5088061;28;20485;-63
2023/10/26 04:36:06;;;;;;;2.95;1.35;;;11.10;76.80;;;;;;5082193;28;20020;-63
2023/10/26 04:38:32;;;;;;;2.22;1.50;;;11.10;76.80;;;;;;5086007;28;20027;-63
2023/10/26 04:40:59;;;;;;;2.17;1.42;;;11.10;76.70;;;;;;5090851;28;20070;-62
2023/10/26 04:43:25;;;;;;;3.70;1.83;;;11.00;77.50;;;;;;5086186;28;20024;-62
2023/10/26 04:45:50;;;;;;;2.33;2.13;;;10.90;76.80;;;;;;4983286;28;20488;-63
2023/10/26 04:48:16;;;;;;;4.90;2.13;;;10.90;76.90;;;;;;5085827;28;20051;-63
2023/10/26 04:50:42;;;;;;;3.03;1.90;;;10.90;76.90;;;;;;5092103;28;20024;-63
2023/10/26 04:53:09;;;;;;;2.67;1.90;;;10.80;77.00;;;;;;5090020;28;20396;-64
2023/10/26 04:55:34;;;;;;;3.45;1.77;;;10.80;77.20;;;;;;5088494;28;20024;-62
2023/10/26 04:58:00;;;;;;;2.20;1.63;;;10.80;77.20;;;;;;5090278;28;20069;-64
2023/10/26 05:00:26;;;;;;;3.00;1.65;;;10.70;77.20;;;;;;5086404;28;20036;-64
2023/10/26 05:02:52;;;;;;;3.08;1.35;;;10.70;77.20;;;;;;5088623;28;20032;-63
2023/10/26 05:05:18;;;;;;;3.35;1.88;;;10.70;77.20;;;;;;5094458;28;20023;-63
2023/10/26 05:07:45;;;;;;;3.20;2.15;;;10.70;77.20;;;;;;5091568;28;20362;-62
2023/10/26 05:10:11;;;;;;;5.35;2.75;;;10.70;77.30;;;;;;5093795;28;20020;-62
2023/10/26 05:12:37;;;;;;;4.05;2.47;;;10.70;77.40;;;;;;5093636;28;20115;-62
2023/10/26 05:15:03;;;;;;;6.63;2.53;;;10.60;77.50;;;;;;5094310;28;20039;-62
2023/10/26 05:17:29;;;;;;;2.83;2.55;;;10.60;77.60;;;;;;5096993;28;20159;-62
2023/10/26 05:19:54;;;;;;;3.75;2.35;;;10.60;77.60;;;;;;5093742;28;20478;-63
2023/10/26 05:22:20;;;;;;;4.35;2.47;;;10.60;77.70;;;;;;5091910;28;20028;-63
2023/10/26 05:24:46;;;;;;;3.53;2.10;;;10.50;77.60;;;;;;5094560;28;20390;-64
2023/10/26 05:27:11;;;;;;;3.05;2.30;;;10.60;77.60;;;;;;5090944;28;20023;-62
2023/10/26 05:29:37;;;;;;;1.75;1.60;;;10.50;78.30;;;;;;5097109;28;20064;-63
2023/10/26 05:32:04;;;;;;;2.33;1.60;;;10.50;77.50;;;;;;5092656;28;20059;-63
2023/10/26 05:34:30;;;;;;;1.95;1.30;;;10.50;77.70;;;;;;5074139;28;20012;-63
2023/10/26 05:36:56;;;;;;;1.13;1.00;;;10.50;77.70;;;;;;5089175;28;20027;-64
2023/10/26 05:39:22;;;;;;;1.17;1.08;;;10.50;77.90;;;;;;5093050;28;20531;-63
2023/10/26 05:41:48;;;;;;;1.40;1.10;;;10.50;77.90;;;;;;5076289;28;20048;-63
2023/10/26 05:44:14;;;;;;;1.50;1.30;;;10.50;78.00;;;;;;5074803;28;20415;-63
2023/10/26 05:46:39;;;;;;;1.88;1.00;;;10.50;78.00;;;;;;5091534;28;20020;-63
2023/10/26 05:49:05;;;;;;;1.48;1.27;;;10.60;78.10;;;;;;5086762;28;20111;-62
2023/10/26 05:51:31;;;;;;;1.20;1.10;;;10.60;78.00;;;;;;5093966;28;20104;-64
2023/10/26 05:53:57;;;;;;;5.63;1.10;;;10.60;77.90;;;;;;5096241;28;20028;-63
2023/10/26 05:56:23;;;;;;;1.17;1.00;;;10.60;77.80;;;;;;5091844;28;20024;-63
2023/10/26 05:58:50;;;;;;;1.70;1.20;;;10.50;77.70;;;;;;5091705;28;20107;-63
2023/10/26 06:01:16;;;;;;;1.38;1.13;;;10.60;77.80;;;;;;5089721;28;20408;-63
2023/10/26 06:03:42;;;;;;;3.80;1.38;;;10.60;77.90;;;;;;5090671;28;20085;-63
2023/10/26 06:06:08;;;;;;;3.33;1.42;;;10.60;78.10;;;;;;5092782;28;20020;-61
2023/10/26 06:08:33;;;;;;;2.17;1.20;;;10.60;78.20;;;;;;5089581;28;20093;-62
2023/10/26 06:10:59;;;;;;;2.65;1.50;;;10.60;78.20;;;;;;5089441;28;20032;-62
2023/10/26 06:13:25;;;;;;;2.33;1.17;;;10.60;78.20;;;;;;5097447;28;20055;-67
2023/10/26 06:15:51;;;;;;;3.72;1.67;;;10.60;78.20;;;;;;5090915;28;20022;-65
2023/10/26 06:18:17;;;;;;;1.85;1.40;;;10.60;78.20;;;;;;5087233;28;20028;-66
2023/10/26 06:20:43;;;;;;;3.40;1.40;;;10.70;78.30;;;;;;5091519;28;20032;-64
2023/10/26 06:23:09;;;;;;;3.35;1.30;;;10.70;78.40;;;;;;5088985;28;20039;-65
2023/10/26 06:25:35;;;;;;;2.38;1.33;;;10.70;78.40;;;;;;5089680;28;20044;-65
2023/10/26 06:28:01;;;;;;;1.15;1.00;;;10.70;78.50;;;;;;5095116;28;20027;-65
2023/10/26 06:30:27;;;;;;;1.77;1.27;;;10.70;78.50;;;;;;5091861;28;20028;-64
2023/10/26 06:32:53;;;;;;;1.92;1.48;;;10.80;78.60;;;;;;5093602;28;20024;-65
2023/10/26 06:35:18;;;;;;;2.70;1.20;;;10.80;78.60;;;;;;5088242;28;20076;-64
2023/10/26 06:37:44;;;;;;;5.38;1.17;;;10.80;78.60;;;;;;5076455;28;20036;-67
2023/10/26 06:40:10;;;;;;;2.83;1.40;;;10.90;78.60;;;;;;5084936;28;20024;-64
2023/10/26 06:42:36;;;;;;;3.63;1.48;;;10.90;78.70;;;;;;5095158;28;20485;-67
2023/10/26 06:45:02;;;;;;;3.83;1.50;;;10.90;78.70;;;;;;5007292;28;20332;-64
2023/10/26 06:47:28;;;;;;;2.30;1.60;;;11.00;79.00;;;;;;5110066;27;20039;-64
2023/10/26 06:49:55;;;;;;;2.90;1.70;;;11.00;79.10;;;;;;5090845;28;20028;-66
2023/10/26 06:52:21;;;;;;;3.72;1.30;;;11.00;79.20;;;;;;5091883;28;20103;-65
2023/10/26 06:54:49;;;;;;;2.10;1.08;;;11.10;79.40;;;;;;5091339;28;20158;-65
2023/10/26 06:57:16;;;;;;;3.33;1.70;;;11.10;79.50;;;;;;5092325;28;20024;-65
2023/10/26 06:59:41;;;;;;;2.28;1.48;;;11.20;79.50;;;;;;5089874;28;20107;-65
2023/10/26 07:02:08;;;;;;;5.53;1.65;;;11.30;79.60;;;;;;5095518;28;20477;-65
2023/10/26 07:04:35;;;;;;;3.63;1.60;;;11.30;79.70;;;;;;5088483;28;20024;-65
2023/10/26 07:07:01;;;;;;;3.50;1.40;;;11.40;79.80;;;;;;5085043;28;20028;-64
2023/10/26 07:09:26;;;;;;;2.80;1.35;;;11.40;79.80;;;;;;5092885;28;20097;-65
2023/10/26 07:11:52;;;;;;;6.25;1.55;;;11.50;79.80;;;;;;5090815;28;20023;-65
2023/10/26 07:14:18;;;;;;;3.97;1.80;;;11.50;79.80;;;;;;5091494;28;20038;-66
2023/10/26 07:16:43;;;;;;;4.72;1.50;;;11.60;79.90;;;;;;5093636;28;20107;-66
2023/10/26 07:19:10;;;;;;;3.90;1.65;;;11.70;80.00;;;;;;5092394;28;20028;-66
2023/10/26 07:21:36;;;;;;;3.10;1.70;;;11.80;80.00;;;;;;5092481;28;20032;-66
2023/10/26 07:24:02;;;;;;;4.53;1.90;;;11.90;80.70;;;;;;5091025;28;20108;-64
2023/10/26 07:26:28;;;;;;;3.35;1.80;;;12.00;80.00;;;;;;5087107;28;20126;-66
2023/10/26 07:28:55;;;;;;;4.50;2.50;;;12.00;79.90;;;;;;5076851;28;20503;-63
2023/10/26 07:31:21;;;;;;;3.67;1.88;;;12.10;79.90;;;;;;5092662;28;20114;-66
2023/10/26 07:33:47;;;;;;;3.25;1.70;;;12.10;79.80;;;;;;5092279;28;20095;-65
2023/10/26 07:36:13;;;;;;;5.60;2.20;;;12.20;79.70;;;;;;5087814;28;20038;-65
2023/10/26 07:38:40;;;;;;;6.85;2.33;;;12.30;79.80;;;;;;5090559;28;20028;-65
2023/10/26 07:41:07;;;;;;;6.78;2.15;;;12.30;79.70;;;;;;5094348;28;20038;-64
2023/10/26 07:43:33;;;;;;;3.90;2.25;;;12.40;79.70;;;;;;5089115;28;20028;-64
2023/10/26 07:45:59;;;;;;;4.38;2.15;;;12.50;79.70;;;;;;5023423;28;20586;-65
2023/10/26 07:48:25;;;;;;;5.65;2.58;;;12.60;79.70;;;;;;5086273;28;20085;-65
2023/10/26 07:50:53;;;;;;;8.43;3.45;;;12.60;79.60;;;;;;5087011;28;20098;-65
2023/10/26 07:53:19;;;;;;;4.57;2.60;;;12.70;79.50;;;;;;5086777;28;20016;-67
2023/10/26 07:55:45;;;;;;;4.63;2.20;;;12.70;79.30;;;;;;5090619;28;20138;-66
2023/10/26 07:58:10;;;;;;;9.20;2.13;;;12.80;79.10;;;;;;5089259;28;20080;-66
2023/10/26 08:00:39;;;;;;;3.10;1.90;;;12.90;79.10;;;;;;5088084;28;20089;-65
2023/10/26 08:03:04;;;;;;;6.32;2.13;;;12.90;79.20;;;;;;5087720;28;20459;-66
2023/10/26 08:05:30;;;;;;;9.18;2.15;;;13.00;79.10;;;;;;5090133;28;20028;-65
2023/10/26 08:07:56;;;;;;;8.32;2.10;;;13.10;79.00;;;;;;5091177;28;20446;-66
2023/10/26 08:10:24;;;;;;;7.35;2.13;;;13.10;79.00;;;;;;5086539;28;20052;-66
2023/10/26 08:12:53;;;;;;;4.47;1.77;;;13.20;78.90;;;;;;5089446;28;20032;-65
2023/10/26 08:15:20;;;;;;;4.22;2.22;;;13.20;78.80;;;;;;5092298;28;20081;-65
2023/10/26 08:17:46;;;;;;;4.78;2.08;;;13.20;78.80;;;;;;5089542;28;20024;-64
2023/10/26 08:20:12;;;;;;;6.07;1.65;;;13.30;78.80;;;;;;5090669;28;20072;-67
2023/10/26 08:22:37;;;;;;;4.90;2.00;;;13.30;78.60;;;;;;5089533;28;20035;-65
2023/10/26 08:25:04;;;;;;;5.78;1.67;;;13.40;78.70;;;;;;5101865;28;20105;-66
2023/10/26 08:27:29;;;;;;;4.15;1.80;;;13.40;78.80;;;;;;5088035;28;20027;-66
2023/10/26 08:29:55;;;;;;;7.22;1.70;;;13.50;78.80;;;;;;5089252;28;20031;-65
2023/10/26 08:32:21;;;;;;;6.47;2.13;;;13.50;78.70;;;;;;5088471;28;20539;-66
2023/10/26 08:34:47;;;;;;;4.35;2.10;;;13.50;78.60;;;;;;5088622;28;20020;-66
2023/10/26 08:37:13;;;;;;;4.22;1.90;;;13.60;78.60;;;;;;5087392;28;20051;-66
2023/10/26 08:39:39;;;;;;;6.03;1.63;;;13.70;78.60;;;;;;5090862;28;20024;-64
2023/10/26 08:42:05;;;;;;;7.90;1.80;;;13.70;78.50;;;;;;5087892;28;20044;-65
2023/10/26 08:44:31;;;;;;;5.25;2.05;;;13.70;79.20;;;;;;5091036;28;20023;-65
2023/10/26 08:47:00;;;;;;;3.42;2.03;;;13.70;78.60;;;;;;5091880;28;20028;-65
2023/10/26 08:49:32;;;;;;;4.25;2.45;;;13.80;78.60;;;;;;5089816;28;20050;-66
2023/10/26 08:51:59;;;;;;;11.13;2.70;;;13.90;78.60;;;;;;5090822;28;20040;-65
2023/10/26 08:54:27;;;;;;;3.30;2.15;;;13.90;78.50;;;;;;5093901;28;20021;-66
2023/10/26 08:56:53;;;;;;;4.00;1.85;;;14.00;78.50;;;;;;5098586;28;20020;-66
2023/10/26 08:59:19;;;;;;;3.75;1.50;;;14.00;78.40;;;;;;5089956;28;20101;-65
2023/10/26 09:01:48;;;;;;;4.22;1.77;;;14.10;78.30;;;;;;5095232;28;20489;-65
2023/10/26 09:04:14;;;;;;;2.50;1.73;;;14.10;78.30;;;;;;5093489;28;20015;-66
2023/10/26 09:06:51;;;;;;;1.52;1.42;;;14.10;78.30;;;;;;5092810;28;20016;-66
2023/10/26 09:09:17;;;;;;;3.45;1.52;;;14.20;79.10;;;;;;5092441;28;20074;-66
2023/10/26 09:11:46;;;;;;;1.90;1.25;;;14.20;78.40;;;;;;5091210;28;20055;-67
2023/10/26 09:14:17;;;;;;;3.33;1.15;;;14.30;78.30;;;;;;5093017;28;20030;-66
2023/10/26 09:16:45;;;;;;;1.23;1.10;;;14.30;78.10;;;;;;5093209;28;20104;-66
2023/10/26 09:19:17;;;;;;;1.10;1.00;;;14.40;78.00;;;;;;5094704;28;20034;-67
2023/10/26 09:21:58;;;;;;;1.38;1.10;;;14.40;78.10;;;;;;5091483;28;20044;-66
2023/10/26 09:24:26;;;;;;;1.50;1.20;;;14.40;78.60;;;;;;5090135;28;20024;-66
2023/10/26 09:27:01;;;;;;;1.20;1.00;;;14.40;78.70;;;;;;5090810;28;20028;-66
2023/10/26 09:29:41;;;;;;;1.70;1.30;;;14.50;78.70;;;;;;5088671;28;20032;-66
2023/10/26 09:32:08;;;;;;;1.25;1.05;;;14.60;79.10;;;;;;5089891;28;20081;-64
2023/10/26 09:34:41;;;;;;;1.95;1.10;;;14.70;78.90;;;;;;5094096;28;20103;-65
2023/10/26 09:37:07;;;;;;;1.20;1.00;;;14.70;79.10;;;;;;5098133;28;20431;-65
2023/10/26 09:39:36;;;;;;;1.48;0.95;;;14.80;78.80;;;;;;5085351;28;20032;-66
2023/10/26 09:42:05;;;;;;;1.48;1.10;;;14.90;78.70;;;;;;5098228;28;20205;-66
2023/10/26 09:44:31;;;;;;;1.30;1.00;;;14.90;78.40;;;;;;5089056;28;20020;-65
2023/10/26 09:46:58;;;;;;;1.27;1.17;;;14.90;78.20;;;;;;4997151;28;20020;-66
2023/10/26 09:49:26;;;;;;;1.48;1.00;;;15.00;78.10;;;;;;5092640;28;20498;-64
2023/10/26 09:51:53;;;;;;;1.50;1.15;;;15.00;78.20;;;;;;5088925;28;20036;-66
2023/10/26 09:54:22;;;;;;;1.00;0.90;;;15.00;78.30;;;;;;5092059;28;20096;-65
2023/10/26 09:56:59;;;;;;;2.10;1.10;;;15.00;78.10;;;;;;5092443;28;20038;-64
2023/10/26 09:59:25;;;;;;;0.95;0.80;;;15.00;77.90;;;;;;5088898;28;20425;-66
2023/10/26 10:01:51;;;;;;;1.42;0.95;;;15.00;77.80;;;;;;5091942;28;20837;-65
2023/10/26 10:04:39;;;;;;;1.05;0.80;;;15.00;77.80;;;;;;5089936;28;20020;-64
2023/10/26 10:07:05;;;;;;;1.13;0.90;;;15.00;78.30;;;;;;5089590;28;20565;-63
2023/10/26 10:09:31;;;;;;;1.45;0.93;;;15.00;77.80;;;;;;5088798;28;20034;-64
2023/10/26 10:12:14;;;;;;;1.60;0.98;;;15.00;77.90;;;;;;5090506;28;20673;-64
2023/10/26 10:14:50;;;;;;;2.33;1.00;;;15.00;77.90;;;;;;5090886;28;20126;-64
2023/10/26 10:17:20;;;;;;;4.15;1.20;;;15.00;77.80;;;;;;5090061;28;20032;-64
2023/10/26 10:19:47;;;;;;;1.63;0.98;;;14.90;77.80;;;;;;5077588;28;20026;-65
2023/10/26 10:22:36;;;;;;;1.67;1.10;;;14.90;78.00;;;;;;5091216;28;20357;-65
2023/10/26 10:25:02;;;;;;;1.45;1.10;;;14.90;78.50;;;;;;5092662;28;20047;-65
2023/10/26 10:27:27;;;;;;;1.35;1.15;;;14.90;78.30;;;;;;5091418;28;20515;-65
2023/10/26 10:29:57;;;;;;;1.42;1.15;;;14.90;78.50;;;;;;5074623;28;20851;-65
2023/10/26 10:32:44;;;;;;;1.17;1.00;;;14.90;78.70;;;;;;5093343;28;20433;-64
2023/10/26 10:35:11;;;;;;;3.90;1.20;;;14.90;79.00;;;;;;5090621;28;20028;-63
2023/10/26 10:37:38;;;;;;;3.08;1.70;;;14.90;78.80;;;;;;5087167;28;20081;-65
2023/10/26 10:40:16;;;;;;;2.53;1.80;;;14.90;78.80;;;;;;5089649;28;20032;-65
2023/10/26 10:42:50;;;;;;;2.40;1.75;;;14.90;79.30;;;;;;5091830;28;20063;-65
2023/10/26 10:45:17;;;;;;;4.85;1.70;;;15.00;79.30;;;;;;5000753;28;20027;-63
2023/10/26 10:47:45;;;;;;;3.80;1.92;;;15.00;79.00;;;;;;5091119;28;20032;-64
2023/10/26 10:50:20;;;;;;;2.03;1.70;;;15.10;78.90;;;;;;5085145;28;20115;-64
2023/10/26 10:52:50;;;;;;;3.45;1.75;;;15.10;78.80;;;;;;5090831;28;20182;-66
2023/10/26 10:55:27;;;;;;;2.00;1.80;;;15.10;78.70;;;;;;5095421;28;20700;-66
2023/10/26 10:58:00;;;;;;;1.85;1.70;;;15.10;78.70;;;;;;5088731;28;20028;-65
2023/10/26 11:00:48;;;;;;;2.08;1.70;;;15.10;78.50;;;;;;5091768;28;20043;-65
2023/10/26 11:03:22;;;;;;;1.50;1.40;;;15.20;78.60;;;;;;5086860;28;20071;-66
2023/10/26 11:05:49;;;;;;;1.38;1.27;;;15.20;78.30;;;;;;5086613;28;20045;-66
2023/10/26 11:08:15;;;;;;;2.25;1.67;;;15.20;78.90;;;;;;5087141;28;20028;-66
2023/10/26 11:10:40;;;;;;;1.85;1.70;;;15.20;78.10;;;;;;5089935;28;20023;-65
2023/10/26 11:13:06;;;;;;;3.75;1.80;;;15.20;78.00;;;;;;5090112;28;20030;-66
2023/10/26 11:15:36;;;;;;;1.60;1.50;;;15.20;78.00;;;;;;5091770;28;20077;-66
2023/10/26 11:18:03;;;;;;;1.40;1.30;;;15.20;78.40;;;;;;5093210;28;20060;-64
2023/10/26 11:20:32;;;;;;;1.98;1.42;;;15.20;78.70;;;;;;5090245;28;20363;-66
2023/10/26 11:22:58;;;;;;;1.35;1.10;;;15.20;78.90;;;;;;5092372;28;20028;-66
2023/10/26 11:25:25;;;;;;;1.65;1.42;;;15.30;79.10;;;;;;5088820;28;20036;-64
2023/10/26 11:27:51;;;;;;;1.80;1.58;;;15.30;79.10;;;;;;5069188;28;20115;-65
2023/10/26 11:30:16;;;;;;;2.25;1.50;;;15.40;79.10;;;;;;5088071;28;20095;-66
2023/10/26 11:32:42;;;;;;;3.10;1.40;;;15.50;78.90;;;;;;5087050;28;20024;-66
2023/10/26 11:35:09;;;;;;;1.60;1.50;;;15.50;78.70;;;;;;5088859;28;20434;-66
2023/10/26 11:37:40;;;;;;;1.83;1.50;;;15.60;78.80;;;;;;5093675;28;20036;-64
2023/10/26 11:40:07;;;;;;;3.42;2.05;;;15.60;79.10;;;;;;5092173;28;20028;-65
2023/10/26 11:42:50;;;;;;;4.47;1.83;;;15.70;79.00;;;;;;5086727;28;20090;-66
2023/10/26 11:45:18;;;;;;;2.08;1.88;;;15.70;78.90;;;;;;4995846;28;20533;-66
2023/10/26 11:47:48;;;;;;;4.00;1.90;;;15.80;78.80;;;;;;5088600;28;20031;-66
2023/10/26 11:50:32;;;;;;;2.00;1.83;;;15.90;78.80;;;;;;5088758;28;20561;-66
2023/10/26 11:52:59;;;;;;;3.38;2.08;;;15.90;78.90;;;;;;5090048;28;20444;-66
2023/10/26 11:55:27;;;;;;;2.30;2.08;;;16.00;78.60;;;;;;5073489;28;20027;-66
2023/10/26 11:57:56;;;;;;;2.20;2.00;;;16.00;78.50;;;;;;5097104;28;20020;-66
2023/10/26 12:00:22;;;;;;;2.78;2.03;;;16.10;78.60;;;;;;5092169;28;20042;-66
2023/10/26 12:02:48;;;;;;;6.70;1.80;;;16.10;78.50;;;;;;5089537;28;20043;-66
2023/10/26 12:05:15;;;;;;;5.00;1.80;;;16.20;78.50;;;;;;5087043;28;20028;-66
2023/10/26 12:07:45;;;;;;;2.30;1.90;;;16.30;78.50;;;;;;5087316;28;20028;-66
2023/10/26 12:10:12;;;;;;;1.50;1.40;;;16.30;78.40;;;;;;5089908;28;20115;-65
2023/10/26 12:12:38;;;;;;;2.08;1.30;;;16.40;78.40;;;;;;5088431;28;20508;-66
2023/10/26 12:15:08;;;;;;;1.60;1.25;;;16.50;78.20;;;;;;5090516;28;20111;-66
2023/10/26 12:17:34;;;;;;;1.55;1.40;;;16.50;78.10;;;;;;5089489;28;20024;-66
2023/10/26 12:20:00;;;;;;;1.95;1.30;;;16.60;78.00;;;;;;5089408;28;20032;-66
2023/10/26 12:22:26;;;;;;;1.73;1.20;;;16.60;78.00;;;;;;5088596;28;20036;-66
2023/10/26 12:24:51;;;;;;;1.58;1.38;;;16.60;77.80;;;;;;5089720;28;20100;-66
2023/10/26 12:27:18;;;;;;;4.45;1.73;;;16.70;77.80;;;;;;5085386;28;20032;-67
2023/10/26 12:29:44;;;;;;;2.63;1.30;;;16.70;77.60;;;;;;5100805;28;20118;-66
2023/10/26 12:32:10;;;;;;;2.38;1.17;;;16.70;77.40;;;;;;5085414;28;20106;-66
2023/10/26 12:34:36;;;;;;;1.40;1.30;;;16.70;77.50;;;;;;5089844;28;20081;-66
2023/10/26 12:37:02;;;;;;;2.03;1.00;;;16.80;78.10;;;;;;5090293;28;20020;-66
2023/10/26 12:39:27;;;;;;;2.47;1.10;;;16.80;78.10;;;;;;5085485;28;20462;-66
2023/10/26 12:41:53;;;;;;;2.83;1.85;;;16.90;77.90;;;;;;5085019;28;20078;-66
2023/10/26 12:44:24;;;;;;;1.85;1.35;;;17.00;77.90;;;;;;5077857;28;20023;-66
2023/10/26 12:46:50;;;;;;;3.92;1.10;;;17.10;78.10;;;;;;5000119;28;20029;-66